sensor_id;sensor_type;location;lat;lon;timestamp;P1;durP1;ratioP1;P2;durP2;ratioP2
41293;SDS011;27037;52.010;4.446;2023-03-14T00:01:21;21.10;;;2.85;;
41293;SDS011;27037;52.010;4.446;2023-03-14T00:03:48;16.95;;;2.65;;
41293;SDS011;27037;52.010;4.446;2023-03-14T00:06:14;14.77;;;2.88;;
41293;SDS011;27037;52.010;4.446;2023-03-14T00:08:41;28.50;;;3.55;;
41293;SDS011;27037;52.010;4.446;2023-03-14T00:11:08;20.95;;;2.97;;
41293;SDS011;27037;52.010;4.446;2023-03-14T00:13:38;18.40;;;3.58;;
41293;SDS011;27037;52.010;4.446;2023-03-14T00:16:04;15.40;;;2.75;;
41293;SDS011;27037;52.010;4.446;2023-03-14T00:18:32;17.92;;;2.92;;
41293;SDS011;27037;52.010;4.446;2023-03-14T00:21:01;18.33;;;2.60;;
41293;SDS011;27037;52.010;4.446;2023-03-14T00:23:28;18.90;;;2.85;;
41293;SDS011;27037;52.010;4.446;2023-03-14T00:26:01;16.27;;;2.65;;
41293;SDS011;27037;52.010;4.446;2023-03-14T00:28:29;19.25;;;2.55;;
41293;SDS011;27037;52.010;4.446;2023-03-14T00:30:55;17.63;;;2.70;;
41293;SDS011;27037;52.010;4.446;2023-03-14T00:33:20;15.38;;;2.83;;
41293;SDS011;27037;52.010;4.446;2023-03-14T00:35:53;17.27;;;3.05;;
41293;SDS011;27037;52.010;4.446;2023-03-14T00:38:19;21.80;;;3.45;;
41293;SDS011;27037;52.010;4.446;2023-03-14T00:40:45;21.67;;;3.67;;
41293;SDS011;27037;52.010;4.446;2023-03-14T00:43:11;20.17;;;3.10;;
41293;SDS011;27037;52.010;4.446;2023-03-14T00:45:36;33.25;;;3.67;;
41293;SDS011;27037;52.010;4.446;2023-03-14T00:48:02;24.38;;;3.08;;
41293;SDS011;27037;52.010;4.446;2023-03-14T00:50:27;20.75;;;2.97;;
41293;SDS011;27037;52.010;4.446;2023-03-14T00:52:53;26.83;;;3.33;;
41293;SDS011;27037;52.010;4.446;2023-03-14T00:55:18;26.80;;;3.85;;
41293;SDS011;27037;52.010;4.446;2023-03-14T00:57:44;25.52;;;4.03;;
41293;SDS011;27037;52.010;4.446;2023-03-14T01:00:10;22.58;;;4.00;;
41293;SDS011;27037;52.010;4.446;2023-03-14T01:02:37;21.70;;;3.35;;
41293;SDS011;27037;52.010;4.446;2023-03-14T01:05:02;18.10;;;3.05;;
41293;SDS011;27037;52.010;4.446;2023-03-14T01:07:28;17.30;;;3.08;;
41293;SDS011;27037;52.010;4.446;2023-03-14T01:09:54;21.58;;;3.30;;
41293;SDS011;27037;52.010;4.446;2023-03-14T01:12:20;17.92;;;3.10;;
41293;SDS011;27037;52.010;4.446;2023-03-14T01:14:45;21.45;;;3.40;;
41293;SDS011;27037;52.010;4.446;2023-03-14T01:17:11;22.17;;;3.35;;
41293;SDS011;27037;52.010;4.446;2023-03-14T01:19:37;22.08;;;3.20;;
41293;SDS011;27037;52.010;4.446;2023-03-14T01:22:02;20.58;;;4.13;;
41293;SDS011;27037;52.010;4.446;2023-03-14T01:24:28;16.77;;;2.80;;
41293;SDS011;27037;52.010;4.446;2023-03-14T01:26:54;19.42;;;3.15;;
41293;SDS011;27037;52.010;4.446;2023-03-14T01:29:19;18.10;;;3.22;;
41293;SDS011;27037;52.010;4.446;2023-03-14T01:31:45;24.20;;;3.08;;
41293;SDS011;27037;52.010;4.446;2023-03-14T01:34:11;17.92;;;3.00;;
41293;SDS011;27037;52.010;4.446;2023-03-14T01:36:36;18.17;;;3.17;;
41293;SDS011;27037;52.010;4.446;2023-03-14T01:39:02;18.88;;;3.30;;
41293;SDS011;27037;52.010;4.446;2023-03-14T01:41:28;18.38;;;3.55;;
41293;SDS011;27037;52.010;4.446;2023-03-14T01:43:54;20.40;;;3.17;;
41293;SDS011;27037;52.010;4.446;2023-03-14T01:46:28;20.60;;;2.90;;
41293;SDS011;27037;52.010;4.446;2023-03-14T01:54:36;20.75;;;3.47;;
41293;SDS011;27037;52.010;4.446;2023-03-14T01:59:35;19.88;;;2.75;;
41293;SDS011;27037;52.010;4.446;2023-03-14T02:02:04;15.45;;;2.45;;
41293;SDS011;27037;52.010;4.446;2023-03-14T02:04:32;22.88;;;2.78;;
41293;SDS011;27037;52.010;4.446;2023-03-14T02:07:02;19.33;;;3.05;;
41293;SDS011;27037;52.010;4.446;2023-03-14T02:09:38;16.20;;;2.78;;
41293;SDS011;27037;52.010;4.446;2023-03-14T02:12:05;16.50;;;2.63;;
41293;SDS011;27037;52.010;4.446;2023-03-14T02:14:33;16.70;;;2.42;;
41293;SDS011;27037;52.010;4.446;2023-03-14T02:17:01;16.10;;;2.78;;
41293;SDS011;27037;52.010;4.446;2023-03-14T02:19:33;17.00;;;2.40;;
41293;SDS011;27037;52.010;4.446;2023-03-14T02:22:09;14.85;;;3.05;;
41293;SDS011;27037;52.010;4.446;2023-03-14T02:27:17;15.68;;;2.17;;
41293;SDS011;27037;52.010;4.446;2023-03-14T02:29:49;12.95;;;2.80;;
41293;SDS011;27037;52.010;4.446;2023-03-14T02:32:30;17.50;;;3.03;;
41293;SDS011;27037;52.010;4.446;2023-03-14T02:35:00;15.57;;;3.22;;
41293;SDS011;27037;52.010;4.446;2023-03-14T02:37:33;15.30;;;2.38;;
41293;SDS011;27037;52.010;4.446;2023-03-14T02:40:03;12.95;;;2.35;;
41293;SDS011;27037;52.010;4.446;2023-03-14T02:42:29;9.90;;;2.10;;
41293;SDS011;27037;52.010;4.446;2023-03-14T02:47:33;13.65;;;2.58;;
41293;SDS011;27037;52.010;4.446;2023-03-14T02:50:09;11.02;;;2.88;;
41293;SDS011;27037;52.010;4.446;2023-03-14T02:52:40;11.55;;;2.75;;
41293;SDS011;27037;52.010;4.446;2023-03-14T02:55:07;15.60;;;2.53;;
41293;SDS011;27037;52.010;4.446;2023-03-14T02:57:33;13.00;;;2.60;;
41293;SDS011;27037;52.010;4.446;2023-03-14T02:59:59;18.15;;;2.97;;
41293;SDS011;27037;52.010;4.446;2023-03-14T03:02:26;18.13;;;2.92;;
41293;SDS011;27037;52.010;4.446;2023-03-14T03:04:52;13.10;;;2.95;;
41293;SDS011;27037;52.010;4.446;2023-03-14T03:07:18;16.70;;;3.28;;
41293;SDS011;27037;52.010;4.446;2023-03-14T03:09:44;13.85;;;3.20;;
41293;SDS011;27037;52.010;4.446;2023-03-14T03:12:10;13.98;;;3.15;;
41293;SDS011;27037;52.010;4.446;2023-03-14T03:14:36;18.10;;;3.28;;
41293;SDS011;27037;52.010;4.446;2023-03-14T03:17:05;18.75;;;3.35;;
41293;SDS011;27037;52.010;4.446;2023-03-14T03:19:31;20.08;;;3.20;;
41293;SDS011;27037;52.010;4.446;2023-03-14T03:21:57;21.08;;;3.20;;
41293;SDS011;27037;52.010;4.446;2023-03-14T03:24:23;20.20;;;3.15;;
41293;SDS011;27037;52.010;4.446;2023-03-14T03:26:50;18.27;;;3.28;;
41293;SDS011;27037;52.010;4.446;2023-03-14T03:29:15;18.65;;;2.90;;
41293;SDS011;27037;52.010;4.446;2023-03-14T03:31:41;11.32;;;2.85;;
41293;SDS011;27037;52.010;4.446;2023-03-14T03:34:07;15.05;;;3.05;;
41293;SDS011;27037;52.010;4.446;2023-03-14T03:36:33;17.77;;;3.03;;
41293;SDS011;27037;52.010;4.446;2023-03-14T03:38:59;19.77;;;3.25;;
41293;SDS011;27037;52.010;4.446;2023-03-14T03:41:24;14.57;;;2.92;;
41293;SDS011;27037;52.010;4.446;2023-03-14T03:43:50;14.77;;;3.60;;
41293;SDS011;27037;52.010;4.446;2023-03-14T03:46:16;14.82;;;3.03;;
41293;SDS011;27037;52.010;4.446;2023-03-14T03:48:41;13.63;;;3.10;;
41293;SDS011;27037;52.010;4.446;2023-03-14T03:51:07;20.60;;;3.05;;
41293;SDS011;27037;52.010;4.446;2023-03-14T03:53:40;19.88;;;3.28;;
41293;SDS011;27037;52.010;4.446;2023-03-14T03:56:06;17.00;;;3.28;;
41293;SDS011;27037;52.010;4.446;2023-03-14T03:58:32;16.50;;;2.72;;
41293;SDS011;27037;52.010;4.446;2023-03-14T04:00:58;18.13;;;3.47;;
41293;SDS011;27037;52.010;4.446;2023-03-14T04:03:23;15.73;;;2.80;;
41293;SDS011;27037;52.010;4.446;2023-03-14T04:05:59;15.63;;;2.90;;
41293;SDS011;27037;52.010;4.446;2023-03-14T04:08:26;15.20;;;2.75;;
41293;SDS011;27037;52.010;4.446;2023-03-14T04:10:55;12.88;;;2.88;;
41293;SDS011;27037;52.010;4.446;2023-03-14T04:13:22;17.67;;;3.20;;
41293;SDS011;27037;52.010;4.446;2023-03-14T04:15:48;18.42;;;2.75;;
41293;SDS011;27037;52.010;4.446;2023-03-14T04:18:14;14.93;;;2.83;;
41293;SDS011;27037;52.010;4.446;2023-03-14T04:20:39;19.33;;;3.05;;
41293;SDS011;27037;52.010;4.446;2023-03-14T04:23:05;21.25;;;3.45;;
41293;SDS011;27037;52.010;4.446;2023-03-14T04:25:30;17.92;;;2.83;;
41293;SDS011;27037;52.010;4.446;2023-03-14T04:27:56;15.82;;;2.67;;
41293;SDS011;27037;52.010;4.446;2023-03-14T04:30:21;12.55;;;2.50;;
41293;SDS011;27037;52.010;4.446;2023-03-14T04:32:47;13.13;;;2.40;;
41293;SDS011;27037;52.010;4.446;2023-03-14T04:35:13;16.50;;;3.08;;
41293;SDS011;27037;52.010;4.446;2023-03-14T04:37:38;16.00;;;2.83;;
41293;SDS011;27037;52.010;4.446;2023-03-14T04:40:05;14.10;;;2.65;;
41293;SDS011;27037;52.010;4.446;2023-03-14T04:42:31;12.75;;;2.70;;
41293;SDS011;27037;52.010;4.446;2023-03-14T04:44:57;15.85;;;2.90;;
41293;SDS011;27037;52.010;4.446;2023-03-14T04:47:23;18.23;;;3.67;;
41293;SDS011;27037;52.010;4.446;2023-03-14T04:49:48;14.45;;;2.88;;
41293;SDS011;27037;52.010;4.446;2023-03-14T04:52:14;13.80;;;2.53;;
41293;SDS011;27037;52.010;4.446;2023-03-14T04:54:40;12.90;;;2.90;;
41293;SDS011;27037;52.010;4.446;2023-03-14T04:57:06;16.17;;;3.08;;
41293;SDS011;27037;52.010;4.446;2023-03-14T04:59:31;15.00;;;3.08;;
41293;SDS011;27037;52.010;4.446;2023-03-14T05:01:57;11.25;;;2.60;;
41293;SDS011;27037;52.010;4.446;2023-03-14T05:04:22;12.80;;;2.80;;
41293;SDS011;27037;52.010;4.446;2023-03-14T05:06:48;10.10;;;2.50;;
41293;SDS011;27037;52.010;4.446;2023-03-14T05:09:14;12.05;;;2.97;;
41293;SDS011;27037;52.010;4.446;2023-03-14T05:11:40;14.35;;;3.40;;
41293;SDS011;27037;52.010;4.446;2023-03-14T05:14:05;14.27;;;3.10;;
41293;SDS011;27037;52.010;4.446;2023-03-14T05:16:31;14.13;;;3.15;;
41293;SDS011;27037;52.010;4.446;2023-03-14T05:18:57;13.90;;;4.72;;
41293;SDS011;27037;52.010;4.446;2023-03-14T05:21:22;13.77;;;6.25;;
41293;SDS011;27037;52.010;4.446;2023-03-14T05:23:48;13.65;;;5.97;;
41293;SDS011;27037;52.010;4.446;2023-03-14T05:26:13;16.50;;;3.55;;
41293;SDS011;27037;52.010;4.446;2023-03-14T05:28:41;13.15;;;2.88;;
41293;SDS011;27037;52.010;4.446;2023-03-14T05:31:07;17.42;;;2.60;;
41293;SDS011;27037;52.010;4.446;2023-03-14T05:33:33;16.48;;;2.70;;
41293;SDS011;27037;52.010;4.446;2023-03-14T05:35:59;14.25;;;1.95;;
41293;SDS011;27037;52.010;4.446;2023-03-14T05:38:24;14.95;;;2.30;;
41293;SDS011;27037;52.010;4.446;2023-03-14T05:40:50;8.07;;;1.55;;
41293;SDS011;27037;52.010;4.446;2023-03-14T05:43:16;11.02;;;1.75;;
41293;SDS011;27037;52.010;4.446;2023-03-14T05:45:42;12.15;;;1.60;;
41293;SDS011;27037;52.010;4.446;2023-03-14T05:48:08;8.40;;;1.65;;
41293;SDS011;27037;52.010;4.446;2023-03-14T05:50:33;12.32;;;1.60;;
41293;SDS011;27037;52.010;4.446;2023-03-14T05:52:59;13.48;;;1.60;;
41293;SDS011;27037;52.010;4.446;2023-03-14T05:55:25;10.93;;;1.77;;
41293;SDS011;27037;52.010;4.446;2023-03-14T05:57:50;8.13;;;1.60;;
41293;SDS011;27037;52.010;4.446;2023-03-14T06:00:18;8.70;;;1.73;;
41293;SDS011;27037;52.010;4.446;2023-03-14T06:02:44;11.05;;;1.67;;
41293;SDS011;27037;52.010;4.446;2023-03-14T06:05:10;14.48;;;1.85;;
41293;SDS011;27037;52.010;4.446;2023-03-14T06:07:35;11.82;;;1.80;;
41293;SDS011;27037;52.010;4.446;2023-03-14T06:10:01;14.65;;;1.58;;
41293;SDS011;27037;52.010;4.446;2023-03-14T06:12:26;8.77;;;1.30;;
41293;SDS011;27037;52.010;4.446;2023-03-14T06:14:53;12.10;;;1.52;;
41293;SDS011;27037;52.010;4.446;2023-03-14T06:17:18;10.52;;;2.00;;
41293;SDS011;27037;52.010;4.446;2023-03-14T06:19:44;4.38;;;1.40;;
41293;SDS011;27037;52.010;4.446;2023-03-14T06:22:09;10.02;;;1.80;;
41293;SDS011;27037;52.010;4.446;2023-03-14T06:24:35;8.18;;;1.42;;
41293;SDS011;27037;52.010;4.446;2023-03-14T06:27:01;4.38;;;1.20;;
41293;SDS011;27037;52.010;4.446;2023-03-14T06:29:28;6.05;;;1.40;;
41293;SDS011;27037;52.010;4.446;2023-03-14T06:31:54;8.85;;;1.23;;
41293;SDS011;27037;52.010;4.446;2023-03-14T06:34:20;5.80;;;1.17;;
41293;SDS011;27037;52.010;4.446;2023-03-14T06:36:45;10.30;;;1.33;;
41293;SDS011;27037;52.010;4.446;2023-03-14T06:39:11;10.20;;;1.55;;
41293;SDS011;27037;52.010;4.446;2023-03-14T06:41:37;11.15;;;1.42;;
41293;SDS011;27037;52.010;4.446;2023-03-14T06:44:03;11.45;;;1.42;;
41293;SDS011;27037;52.010;4.446;2023-03-14T06:46:28;10.07;;;1.30;;
41293;SDS011;27037;52.010;4.446;2023-03-14T06:48:54;7.20;;;1.25;;
41293;SDS011;27037;52.010;4.446;2023-03-14T06:51:20;9.80;;;1.30;;
41293;SDS011;27037;52.010;4.446;2023-03-14T06:53:45;9.50;;;1.55;;
41293;SDS011;27037;52.010;4.446;2023-03-14T06:56:11;11.43;;;1.45;;
41293;SDS011;27037;52.010;4.446;2023-03-14T06:58:37;11.70;;;1.75;;
41293;SDS011;27037;52.010;4.446;2023-03-14T07:01:02;13.32;;;1.80;;
41293;SDS011;27037;52.010;4.446;2023-03-14T07:03:28;14.65;;;2.13;;
41293;SDS011;27037;52.010;4.446;2023-03-14T07:05:54;20.63;;;2.30;;
41293;SDS011;27037;52.010;4.446;2023-03-14T07:08:19;19.98;;;2.28;;
41293;SDS011;27037;52.010;4.446;2023-03-14T07:10:45;9.43;;;1.92;;
41293;SDS011;27037;52.010;4.446;2023-03-14T07:13:11;20.27;;;3.10;;
41293;SDS011;27037;52.010;4.446;2023-03-14T07:15:36;15.30;;;2.10;;
41293;SDS011;27037;52.010;4.446;2023-03-14T07:18:02;13.15;;;2.17;;
41293;SDS011;27037;52.010;4.446;2023-03-14T07:20:27;18.85;;;2.15;;
41293;SDS011;27037;52.010;4.446;2023-03-14T07:22:54;12.65;;;2.00;;
41293;SDS011;27037;52.010;4.446;2023-03-14T07:25:20;13.90;;;2.15;;
41293;SDS011;27037;52.010;4.446;2023-03-14T07:27:46;14.35;;;2.22;;
41293;SDS011;27037;52.010;4.446;2023-03-14T07:30:13;11.40;;;1.70;;
41293;SDS011;27037;52.010;4.446;2023-03-14T07:32:39;13.68;;;2.03;;
41293;SDS011;27037;52.010;4.446;2023-03-14T07:35:05;11.98;;;2.03;;
41293;SDS011;27037;52.010;4.446;2023-03-14T07:37:31;6.15;;;1.50;;
41293;SDS011;27037;52.010;4.446;2023-03-14T07:39:57;10.63;;;1.80;;
41293;SDS011;27037;52.010;4.446;2023-03-14T07:42:23;11.75;;;1.70;;
41293;SDS011;27037;52.010;4.446;2023-03-14T07:44:48;5.82;;;1.10;;
41293;SDS011;27037;52.010;4.446;2023-03-14T07:47:14;10.38;;;0.90;;
41293;SDS011;27037;52.010;4.446;2023-03-14T07:49:39;6.07;;;1.00;;
41293;SDS011;27037;52.010;4.446;2023-03-14T07:52:05;15.93;;;1.70;;
41293;SDS011;27037;52.010;4.446;2023-03-14T07:54:30;8.57;;;1.30;;
41293;SDS011;27037;52.010;4.446;2023-03-14T07:56:56;14.05;;;1.92;;
41293;SDS011;27037;52.010;4.446;2023-03-14T07:59:25;19.98;;;1.48;;
41293;SDS011;27037;52.010;4.446;2023-03-14T08:01:51;12.63;;;1.40;;
41293;SDS011;27037;52.010;4.446;2023-03-14T08:04:17;9.82;;;1.33;;
41293;SDS011;27037;52.010;4.446;2023-03-14T08:06:42;12.02;;;1.70;;
41293;SDS011;27037;52.010;4.446;2023-03-14T08:09:08;7.78;;;1.40;;
41293;SDS011;27037;52.010;4.446;2023-03-14T08:11:34;9.40;;;1.30;;
41293;SDS011;27037;52.010;4.446;2023-03-14T08:13:59;9.90;;;1.55;;
41293;SDS011;27037;52.010;4.446;2023-03-14T08:16:25;14.52;;;1.83;;
41293;SDS011;27037;52.010;4.446;2023-03-14T08:18:50;17.20;;;1.65;;
41293;SDS011;27037;52.010;4.446;2023-03-14T08:21:16;9.40;;;1.52;;
41293;SDS011;27037;52.010;4.446;2023-03-14T08:23:41;11.27;;;1.50;;
41293;SDS011;27037;52.010;4.446;2023-03-14T08:26:07;10.35;;;1.60;;
41293;SDS011;27037;52.010;4.446;2023-03-14T08:28:33;12.50;;;1.45;;
41293;SDS011;27037;52.010;4.446;2023-03-14T08:30:59;11.27;;;1.42;;
41293;SDS011;27037;52.010;4.446;2023-03-14T08:33:26;16.58;;;1.88;;
41293;SDS011;27037;52.010;4.446;2023-03-14T08:35:56;11.02;;;1.40;;
41293;SDS011;27037;52.010;4.446;2023-03-14T08:38:24;9.20;;;1.75;;
41293;SDS011;27037;52.010;4.446;2023-03-14T08:40:54;9.05;;;1.00;;
41293;SDS011;27037;52.010;4.446;2023-03-14T08:43:24;5.10;;;1.10;;
41293;SDS011;27037;52.010;4.446;2023-03-14T08:45:51;4.97;;;1.35;;
41293;SDS011;27037;52.010;4.446;2023-03-14T08:48:16;10.48;;;1.63;;
41293;SDS011;27037;52.010;4.446;2023-03-14T08:50:42;10.32;;;1.48;;
41293;SDS011;27037;52.010;4.446;2023-03-14T08:53:08;8.77;;;1.40;;
41293;SDS011;27037;52.010;4.446;2023-03-14T08:55:34;11.02;;;1.50;;
41293;SDS011;27037;52.010;4.446;2023-03-14T08:57:59;10.82;;;1.58;;
41293;SDS011;27037;52.010;4.446;2023-03-14T09:00:25;12.25;;;1.73;;
41293;SDS011;27037;52.010;4.446;2023-03-14T09:02:50;10.98;;;1.52;;
41293;SDS011;27037;52.010;4.446;2023-03-14T09:05:16;16.30;;;2.17;;
41293;SDS011;27037;52.010;4.446;2023-03-14T09:07:42;15.88;;;1.70;;
41293;SDS011;27037;52.010;4.446;2023-03-14T09:10:08;17.70;;;2.22;;
41293;SDS011;27037;52.010;4.446;2023-03-14T09:12:34;23.88;;;2.60;;
41293;SDS011;27037;52.010;4.446;2023-03-14T09:15:00;18.70;;;2.88;;
41293;SDS011;27037;52.010;4.446;2023-03-14T09:17:26;23.52;;;2.63;;
41293;SDS011;27037;52.010;4.446;2023-03-14T09:19:51;23.58;;;3.13;;
41293;SDS011;27037;52.010;4.446;2023-03-14T09:22:17;25.35;;;3.35;;
41293;SDS011;27037;52.010;4.446;2023-03-14T09:24:43;23.45;;;2.67;;
41293;SDS011;27037;52.010;4.446;2023-03-14T09:27:08;22.27;;;3.53;;
41293;SDS011;27037;52.010;4.446;2023-03-14T09:29:34;25.48;;;3.08;;
41293;SDS011;27037;52.010;4.446;2023-03-14T09:32:00;17.83;;;2.70;;
41293;SDS011;27037;52.010;4.446;2023-03-14T09:34:25;18.85;;;2.78;;
41293;SDS011;27037;52.010;4.446;2023-03-14T09:36:51;19.08;;;2.75;;
41293;SDS011;27037;52.010;4.446;2023-03-14T09:39:17;15.43;;;2.53;;
41293;SDS011;27037;52.010;4.446;2023-03-14T09:41:44;16.60;;;2.55;;
41293;SDS011;27037;52.010;4.446;2023-03-14T09:44:14;16.77;;;2.10;;
41293;SDS011;27037;52.010;4.446;2023-03-14T09:46:41;14.90;;;2.80;;
41293;SDS011;27037;52.010;4.446;2023-03-14T09:49:17;21.65;;;2.55;;
41293;SDS011;27037;52.010;4.446;2023-03-14T09:51:50;23.17;;;2.97;;
41293;SDS011;27037;52.010;4.446;2023-03-14T09:57:25;21.50;;;3.08;;
41293;SDS011;27037;52.010;4.446;2023-03-14T09:59:52;27.45;;;3.33;;
41293;SDS011;27037;52.010;4.446;2023-03-14T10:02:23;26.73;;;3.58;;
41293;SDS011;27037;52.010;4.446;2023-03-14T10:04:51;24.13;;;3.60;;
41293;SDS011;27037;52.010;4.446;2023-03-14T10:07:29;30.27;;;3.25;;
41293;SDS011;27037;52.010;4.446;2023-03-14T10:09:56;20.00;;;3.60;;
41293;SDS011;27037;52.010;4.446;2023-03-14T10:12:44;28.00;;;3.53;;
41293;SDS011;27037;52.010;4.446;2023-03-14T10:15:11;32.85;;;4.05;;
41293;SDS011;27037;52.010;4.446;2023-03-14T10:17:43;32.97;;;4.45;;
41293;SDS011;27037;52.010;4.446;2023-03-14T10:20:25;34.15;;;3.85;;
41293;SDS011;27037;52.010;4.446;2023-03-14T10:22:52;24.77;;;3.60;;
41293;SDS011;27037;52.010;4.446;2023-03-14T10:25:25;34.28;;;4.15;;
41293;SDS011;27037;52.010;4.446;2023-03-14T10:27:53;32.90;;;4.60;;
41293;SDS011;27037;52.010;4.446;2023-03-14T10:30:38;29.02;;;3.60;;
41293;SDS011;27037;52.010;4.446;2023-03-14T10:33:12;30.20;;;4.00;;
41293;SDS011;27037;52.010;4.446;2023-03-14T10:35:51;28.45;;;3.53;;
41293;SDS011;27037;52.010;4.446;2023-03-14T10:38:33;32.15;;;3.78;;
41293;SDS011;27037;52.010;4.446;2023-03-14T10:41:01;24.00;;;3.90;;
41293;SDS011;27037;52.010;4.446;2023-03-14T10:43:39;31.92;;;4.68;;
41293;SDS011;27037;52.010;4.446;2023-03-14T10:46:08;34.53;;;4.30;;
41293;SDS011;27037;52.010;4.446;2023-03-14T10:48:38;27.10;;;3.47;;
41293;SDS011;27037;52.010;4.446;2023-03-14T10:51:11;32.72;;;3.80;;
41293;SDS011;27037;52.010;4.446;2023-03-14T10:53:47;30.15;;;3.78;;
41293;SDS011;27037;52.010;4.446;2023-03-14T10:56:14;24.88;;;3.33;;
41293;SDS011;27037;52.010;4.446;2023-03-14T10:58:43;32.22;;;4.40;;
41293;SDS011;27037;52.010;4.446;2023-03-14T11:04:13;20.00;;;2.53;;
41293;SDS011;27037;52.010;4.446;2023-03-14T11:10:02;25.02;;;3.22;;
41293;SDS011;27037;52.010;4.446;2023-03-14T11:15:45;19.38;;;2.63;;
41293;SDS011;27037;52.010;4.446;2023-03-14T11:18:31;22.88;;;3.45;;
41293;SDS011;27037;52.010;4.446;2023-03-14T11:29:02;19.17;;;2.22;;
41293;SDS011;27037;52.010;4.446;2023-03-14T11:31:33;18.35;;;2.30;;
41293;SDS011;27037;52.010;4.446;2023-03-14T11:36:39;15.93;;;2.85;;
41293;SDS011;27037;52.010;4.446;2023-03-14T11:39:16;17.67;;;2.45;;
41293;SDS011;27037;52.010;4.446;2023-03-14T11:41:44;14.45;;;2.78;;
41293;SDS011;27037;52.010;4.446;2023-03-14T11:47:15;12.77;;;2.33;;
41293;SDS011;27037;52.010;4.446;2023-03-14T11:50:01;14.18;;;2.80;;
41293;SDS011;27037;52.010;4.446;2023-03-14T11:52:48;19.70;;;2.53;;
41293;SDS011;27037;52.010;4.446;2023-03-14T11:55:30;19.98;;;2.53;;
41293;SDS011;27037;52.010;4.446;2023-03-14T11:58:14;17.75;;;2.70;;
41293;SDS011;27037;52.010;4.446;2023-03-14T12:00:47;19.92;;;2.70;;
41293;SDS011;27037;52.010;4.446;2023-03-14T12:05:48;17.45;;;2.88;;
41293;SDS011;27037;52.010;4.446;2023-03-14T12:11:30;11.05;;;2.40;;
41293;SDS011;27037;52.010;4.446;2023-03-14T12:13:57;13.15;;;2.50;;
41293;SDS011;27037;52.010;4.446;2023-03-14T12:18:48;11.18;;;1.98;;
41293;SDS011;27037;52.010;4.446;2023-03-14T12:21:15;11.38;;;2.13;;
41293;SDS011;27037;52.010;4.446;2023-03-14T12:23:41;10.98;;;2.10;;
41293;SDS011;27037;52.010;4.446;2023-03-14T12:26:19;14.57;;;2.20;;
41293;SDS011;27037;52.010;4.446;2023-03-14T12:42:11;19.02;;;2.58;;
41293;SDS011;27037;52.010;4.446;2023-03-14T12:49:46;15.77;;;2.10;;
41293;SDS011;27037;52.010;4.446;2023-03-14T12:52:19;15.07;;;2.40;;
41293;SDS011;27037;52.010;4.446;2023-03-14T12:57:31;12.18;;;1.95;;
41293;SDS011;27037;52.010;4.446;2023-03-14T13:00:22;15.65;;;1.92;;
41293;SDS011;27037;52.010;4.446;2023-03-14T13:02:55;16.25;;;1.90;;
41293;SDS011;27037;52.010;4.446;2023-03-14T13:05:40;12.13;;;1.73;;
41293;SDS011;27037;52.010;4.446;2023-03-14T13:11:03;8.60;;;1.95;;
41293;SDS011;27037;52.010;4.446;2023-03-14T13:13:31;13.02;;;1.80;;
41293;SDS011;27037;52.010;4.446;2023-03-14T13:16:03;13.50;;;2.35;;
41293;SDS011;27037;52.010;4.446;2023-03-14T13:18:36;12.75;;;2.08;;
41293;SDS011;27037;52.010;4.446;2023-03-14T13:26:52;13.13;;;1.60;;
41293;SDS011;27037;52.010;4.446;2023-03-14T13:29:27;9.75;;;1.70;;
41293;SDS011;27037;52.010;4.446;2023-03-14T13:32:01;8.65;;;1.50;;
41293;SDS011;27037;52.010;4.446;2023-03-14T13:34:41;19.40;;;1.92;;
41293;SDS011;27037;52.010;4.446;2023-03-14T13:37:14;14.75;;;2.10;;
41293;SDS011;27037;52.010;4.446;2023-03-14T13:39:49;13.68;;;1.77;;
41293;SDS011;27037;52.010;4.446;2023-03-14T13:42:20;12.07;;;1.60;;
41293;SDS011;27037;52.010;4.446;2023-03-14T13:44:47;12.02;;;2.05;;
41293;SDS011;27037;52.010;4.446;2023-03-14T13:47:16;14.40;;;1.67;;
41293;SDS011;27037;52.010;4.446;2023-03-14T13:49:46;12.02;;;1.80;;
41293;SDS011;27037;52.010;4.446;2023-03-14T13:54:54;16.52;;;2.20;;
41293;SDS011;27037;52.010;4.446;2023-03-14T14:00:26;9.80;;;1.80;;
41293;SDS011;27037;52.010;4.446;2023-03-14T14:02:55;11.73;;;1.70;;
41293;SDS011;27037;52.010;4.446;2023-03-14T14:05:23;9.57;;;1.67;;
41293;SDS011;27037;52.010;4.446;2023-03-14T14:07:52;11.27;;;2.13;;
41293;SDS011;27037;52.010;4.446;2023-03-14T14:10:18;8.60;;;1.35;;
41293;SDS011;27037;52.010;4.446;2023-03-14T14:12:46;9.98;;;1.65;;
41293;SDS011;27037;52.010;4.446;2023-03-14T14:17:46;9.73;;;1.88;;
41293;SDS011;27037;52.010;4.446;2023-03-14T14:20:29;9.23;;;1.75;;
41293;SDS011;27037;52.010;4.446;2023-03-14T14:23:19;16.95;;;2.03;;
41293;SDS011;27037;52.010;4.446;2023-03-14T14:25:50;16.40;;;1.92;;
41293;SDS011;27037;52.010;4.446;2023-03-14T14:28:26;11.02;;;2.30;;
41293;SDS011;27037;52.010;4.446;2023-03-14T14:33:46;17.75;;;2.35;;
41293;SDS011;27037;52.010;4.446;2023-03-14T14:36:19;14.77;;;1.90;;
41293;SDS011;27037;52.010;4.446;2023-03-14T14:38:51;13.48;;;2.13;;
41293;SDS011;27037;52.010;4.446;2023-03-14T14:41:28;14.40;;;2.25;;
41293;SDS011;27037;52.010;4.446;2023-03-14T14:43:55;9.40;;;1.85;;
41293;SDS011;27037;52.010;4.446;2023-03-14T14:46:21;8.10;;;1.55;;
41293;SDS011;27037;52.010;4.446;2023-03-14T14:48:47;14.90;;;1.90;;
41293;SDS011;27037;52.010;4.446;2023-03-14T14:51:23;13.70;;;1.60;;
41293;SDS011;27037;52.010;4.446;2023-03-14T14:53:59;9.15;;;1.40;;
41293;SDS011;27037;52.010;4.446;2023-03-14T14:56:27;11.35;;;1.83;;
41293;SDS011;27037;52.010;4.446;2023-03-14T14:59:00;8.68;;;1.50;;
41293;SDS011;27037;52.010;4.446;2023-03-14T15:01:36;5.75;;;1.48;;
41293;SDS011;27037;52.010;4.446;2023-03-14T15:04:13;9.55;;;1.50;;
41293;SDS011;27037;52.010;4.446;2023-03-14T15:06:42;11.75;;;1.60;;
41293;SDS011;27037;52.010;4.446;2023-03-14T15:09:12;9.52;;;1.65;;
41293;SDS011;27037;52.010;4.446;2023-03-14T15:11:42;7.88;;;1.42;;
41293;SDS011;27037;52.010;4.446;2023-03-14T15:14:08;8.60;;;1.77;;
41293;SDS011;27037;52.010;4.446;2023-03-14T15:16:33;11.18;;;1.60;;
41293;SDS011;27037;52.010;4.446;2023-03-14T15:19:00;9.57;;;1.52;;
41293;SDS011;27037;52.010;4.446;2023-03-14T15:21:30;14.00;;;1.70;;
41293;SDS011;27037;52.010;4.446;2023-03-14T15:23:57;13.73;;;1.60;;
41293;SDS011;27037;52.010;4.446;2023-03-14T15:26:26;12.02;;;1.60;;
41293;SDS011;27037;52.010;4.446;2023-03-14T15:28:52;11.40;;;1.45;;
41293;SDS011;27037;52.010;4.446;2023-03-14T15:31:18;11.90;;;1.52;;
41293;SDS011;27037;52.010;4.446;2023-03-14T15:33:46;10.90;;;1.50;;
41293;SDS011;27037;52.010;4.446;2023-03-14T15:36:22;9.05;;;1.70;;
41293;SDS011;27037;52.010;4.446;2023-03-14T15:38:53;11.05;;;1.65;;
41293;SDS011;27037;52.010;4.446;2023-03-14T15:41:20;10.30;;;1.35;;
41293;SDS011;27037;52.010;4.446;2023-03-14T15:43:48;11.55;;;1.42;;
41293;SDS011;27037;52.010;4.446;2023-03-14T15:46:14;8.18;;;1.70;;
41293;SDS011;27037;52.010;4.446;2023-03-14T15:48:42;7.90;;;1.30;;
41293;SDS011;27037;52.010;4.446;2023-03-14T15:51:08;9.20;;;1.60;;
41293;SDS011;27037;52.010;4.446;2023-03-14T15:53:34;13.57;;;1.63;;
41293;SDS011;27037;52.010;4.446;2023-03-14T15:56:02;20.88;;;7.50;;
41293;SDS011;27037;52.010;4.446;2023-03-14T15:58:30;8.65;;;1.55;;
41293;SDS011;27037;52.010;4.446;2023-03-14T16:00:59;11.80;;;2.03;;
41293;SDS011;27037;52.010;4.446;2023-03-14T16:03:25;12.98;;;2.08;;
41293;SDS011;27037;52.010;4.446;2023-03-14T16:05:52;10.35;;;1.80;;
41293;SDS011;27037;52.010;4.446;2023-03-14T16:08:18;11.50;;;1.55;;
41293;SDS011;27037;52.010;4.446;2023-03-14T16:10:44;12.73;;;1.65;;